This is the latest recevied weather packets stored in our database for station/object YD2CLX-11. If no packets are shown the sender has not sent any weather packets the latest 10 day(s).
| Time | Temp. | Humidity | Pressure | Rain* | Wind** | Luminosity | Snow |
|---|---|---|---|---|---|---|---|
| 1788146472 | 98° F | 42% | 750.1 mmHg | - | - | - | - |
| 1788145870 | 99° F | 41% | 750.4 mmHg | - | - | - | - |
| 1788145269 | 100° F | 40% | 750.5 mmHg | - | - | - | - |
| 1788144669 | 97° F | 43% | 750.7 mmHg | - | - | - | - |
| 1788144067 | 95° F | 47% | 750.8 mmHg | - | - | - | - |
| 1788143465 | 95° F | 48% | 750.9 mmHg | - | - | - | - |
| 1788142865 | 94° F | 47% | 751.1 mmHg | - | - | - | - |
| 1788142263 | 93° F | 50% | 751.1 mmHg | - | - | - | - |
| 1788141662 | 93° F | 51% | 751.2 mmHg | - | - | - | - |
| 1788141060 | 95° F | 48% | 751.2 mmHg | - | - | - | - |
| 1788140459 | 96° F | 51% | 751.2 mmHg | - | - | - | - |
| 1788139858 | 92° F | 55% | 751.3 mmHg | - | - | - | - |
| 1788139256 | 92° F | 55% | 751.3 mmHg | - | - | - | - |
| 1788138655 | 91° F | 57% | 751.3 mmHg | - | - | - | - |
| 1788138053 | 92° F | 56% | 751.3 mmHg | - | - | - | - |
| 1788137452 | 91° F | 57% | 751.4 mmHg | - | - | - | - |
| 1788136851 | 89° F | 60% | 751.3 mmHg | - | - | - | - |
| 1788136250 | 87° F | 64% | 751.4 mmHg | - | - | - | - |
| 1788135648 | 86° F | 66% | 751.3 mmHg | - | - | - | - |
| 1788135047 | 84° F | 71% | 751.2 mmHg | - | - | - | - |
| 1788134445 | 82° F | 74% | 751.1 mmHg | - | - | - | - |
| 1788133844 | 81° F | 76% | 751.1 mmHg | - | - | - | - |
| 1788133243 | 80° F | 80% | 751 mmHg | - | - | - | - |
| 1788132642 | 78° F | 82% | 751 mmHg | - | - | - | - |
| 1788132041 | 77° F | 83% | 750.8 mmHg | - | - | - | - |
* Rain since midnight (hover to see other rain measurements)
** Current wind speed in m/s (hover to see current wind gust speed)